Allandale, Florida
Current Conditions -  °F | °C
As of 10:53 PM on Saturday 20 Dec 2014 (Local Time) from KDAB Reporting Station
Overcast Overcast  
Wind Chill: 65°   Ceiling: 9000
Heat Index: 65°   Visibility: 8mi
Dew Point: 62°   Wind: 3mph
Humidity: 90%   Direction: 360°N
Pressure: 30.12"   Gusts: NA
Location:  29.1486°N, 81.0301°W
Report Text: KDAB 210353Z 36003KT 8SM OVC090 18/17 A3012 RMK AO2 SLP198 T01830167
Loading
Personal Weather Stations






























Interactive Weather Map New forecast layout! Learn more

10-Day Weather Forecast

Advertisements
Track Severe Weather on mobile